North Uxbridge, Massachusetts
Current Conditions -  °F | °C
As of 4:55 AM on Friday 19 Dec 2014 (Local Time) from KSFZ Reporting Station
Overcast Overcast  
Wind Chill: 27°   Ceiling: 4100
Heat Index: 34°   Visibility: 10mi
Dew Point: 19°   Wind: 8mph
Humidity: 56%   Direction: 290°WNW
Pressure: 29.87"   Gusts: NA
Location:  42.09°N, 71.64°W
Report Text: KSFZ 190955Z 29007KT 10SM OVC041 01/M07 A2987 RMK AO1
Loading
Personal Weather Stations






























Interactive Weather Map New forecast layout! Learn more

10-Day Weather Forecast

Advertisements
Track Severe Weather on mobile